sensor_id;sensor_type;location;lat;lon;timestamp;P1;durP1;ratioP1;P2;durP2;ratioP2
47844;SDS011;33605;48.822;8.796;2024-01-10T00:01:55;28.47;;;13.73;;
47844;SDS011;33605;48.822;8.796;2024-01-10T00:04:21;24.70;;;14.23;;
47844;SDS011;33605;48.822;8.796;2024-01-10T00:06:46;24.20;;;12.50;;
47844;SDS011;33605;48.822;8.796;2024-01-10T00:09:12;25.97;;;14.90;;
47844;SDS011;33605;48.822;8.796;2024-01-10T00:11:38;25.33;;;13.33;;
47844;SDS011;33605;48.822;8.796;2024-01-10T00:14:04;25.50;;;14.23;;
47844;SDS011;33605;48.822;8.796;2024-01-10T00:16:30;25.17;;;14.67;;
47844;SDS011;33605;48.822;8.796;2024-01-10T00:18:56;24.17;;;14.47;;
47844;SDS011;33605;48.822;8.796;2024-01-10T00:21:21;29.13;;;16.50;;
47844;SDS011;33605;48.822;8.796;2024-01-10T00:23:47;32.50;;;16.87;;
47844;SDS011;33605;48.822;8.796;2024-01-10T00:26:12;33.83;;;18.03;;
47844;SDS011;33605;48.822;8.796;2024-01-10T00:28:38;33.37;;;17.63;;
47844;SDS011;33605;48.822;8.796;2024-01-10T00:31:03;37.33;;;17.73;;
47844;SDS011;33605;48.822;8.796;2024-01-10T00:33:29;36.77;;;17.30;;
47844;SDS011;33605;48.822;8.796;2024-01-10T00:35:57;29.50;;;16.37;;
47844;SDS011;33605;48.822;8.796;2024-01-10T00:38:26;37.22;;;17.90;;
47844;SDS011;33605;48.822;8.796;2024-01-10T00:40:51;27.07;;;15.20;;
47844;SDS011;33605;48.822;8.796;2024-01-10T00:43:17;26.50;;;14.77;;
47844;SDS011;33605;48.822;8.796;2024-01-10T00:45:42;25.47;;;13.30;;
47844;SDS011;33605;48.822;8.796;2024-01-10T00:48:11;27.60;;;14.30;;
47844;SDS011;33605;48.822;8.796;2024-01-10T00:50:37;24.67;;;13.33;;
47844;SDS011;33605;48.822;8.796;2024-01-10T00:53:02;23.73;;;13.60;;
47844;SDS011;33605;48.822;8.796;2024-01-10T00:55:28;27.73;;;14.30;;
47844;SDS011;33605;48.822;8.796;2024-01-10T00:57:56;28.17;;;14.57;;
47844;SDS011;33605;48.822;8.796;2024-01-10T01:00:22;25.10;;;14.13;;
47844;SDS011;33605;48.822;8.796;2024-01-10T01:02:47;24.87;;;14.33;;
47844;SDS011;33605;48.822;8.796;2024-01-10T01:05:13;34.83;;;15.50;;
47844;SDS011;33605;48.822;8.796;2024-01-10T01:07:38;21.10;;;12.63;;
47844;SDS011;33605;48.822;8.796;2024-01-10T01:10:05;23.03;;;14.23;;
47844;SDS011;33605;48.822;8.796;2024-01-10T01:12:31;22.43;;;12.57;;
47844;SDS011;33605;48.822;8.796;2024-01-10T01:14:56;23.37;;;13.80;;
47844;SDS011;33605;48.822;8.796;2024-01-10T01:17:22;25.70;;;13.13;;
47844;SDS011;33605;48.822;8.796;2024-01-10T01:19:47;24.80;;;14.70;;
47844;SDS011;33605;48.822;8.796;2024-01-10T01:22:13;22.67;;;13.10;;
47844;SDS011;33605;48.822;8.796;2024-01-10T01:24:39;24.13;;;12.93;;
47844;SDS011;33605;48.822;8.796;2024-01-10T01:27:05;22.80;;;13.30;;
47844;SDS011;33605;48.822;8.796;2024-01-10T01:29:30;32.90;;;13.50;;
47844;SDS011;33605;48.822;8.796;2024-01-10T01:31:56;23.83;;;14.10;;
47844;SDS011;33605;48.822;8.796;2024-01-10T01:34:22;27.07;;;13.93;;
47844;SDS011;33605;48.822;8.796;2024-01-10T01:36:47;24.73;;;14.90;;
47844;SDS011;33605;48.822;8.796;2024-01-10T01:39:13;26.23;;;13.00;;
47844;SDS011;33605;48.822;8.796;2024-01-10T01:41:39;27.10;;;15.03;;
47844;SDS011;33605;48.822;8.796;2024-01-10T01:44:05;25.73;;;12.87;;
47844;SDS011;33605;48.822;8.796;2024-01-10T01:46:31;26.20;;;13.60;;
47844;SDS011;33605;48.822;8.796;2024-01-10T01:48:58;24.00;;;12.80;;
47844;SDS011;33605;48.822;8.796;2024-01-10T01:51:24;26.10;;;13.80;;
47844;SDS011;33605;48.822;8.796;2024-01-10T01:53:52;29.42;;;14.00;;
47844;SDS011;33605;48.822;8.796;2024-01-10T01:56:19;30.10;;;15.33;;
47844;SDS011;33605;48.822;8.796;2024-01-10T01:58:45;26.53;;;15.37;;
47844;SDS011;33605;48.822;8.796;2024-01-10T02:01:14;23.80;;;15.10;;
47844;SDS011;33605;48.822;8.796;2024-01-10T02:03:40;28.83;;;13.70;;
47844;SDS011;33605;48.822;8.796;2024-01-10T02:06:05;27.47;;;15.73;;
47844;SDS011;33605;48.822;8.796;2024-01-10T02:08:32;27.10;;;15.60;;
47844;SDS011;33605;48.822;8.796;2024-01-10T02:11:01;23.87;;;13.47;;
47844;SDS011;33605;48.822;8.796;2024-01-10T02:13:28;27.63;;;13.63;;
47844;SDS011;33605;48.822;8.796;2024-01-10T02:15:55;26.50;;;14.50;;
47844;SDS011;33605;48.822;8.796;2024-01-10T02:18:21;26.97;;;14.70;;
47844;SDS011;33605;48.822;8.796;2024-01-10T02:20:47;24.13;;;13.83;;
47844;SDS011;33605;48.822;8.796;2024-01-10T02:23:12;26.30;;;13.40;;
47844;SDS011;33605;48.822;8.796;2024-01-10T02:25:38;24.97;;;14.90;;
47844;SDS011;33605;48.822;8.796;2024-01-10T02:28:05;27.40;;;14.50;;
47844;SDS011;33605;48.822;8.796;2024-01-10T02:30:31;31.17;;;16.30;;
47844;SDS011;33605;48.822;8.796;2024-01-10T02:32:57;32.07;;;15.13;;
47844;SDS011;33605;48.822;8.796;2024-01-10T02:35:23;24.03;;;14.53;;
47844;SDS011;33605;48.822;8.796;2024-01-10T02:37:49;32.83;;;16.77;;
47844;SDS011;33605;48.822;8.796;2024-01-10T02:40:19;28.70;;;13.97;;
47844;SDS011;33605;48.822;8.796;2024-01-10T02:42:45;23.20;;;14.13;;
47844;SDS011;33605;48.822;8.796;2024-01-10T02:45:10;29.20;;;13.50;;
47844;SDS011;33605;48.822;8.796;2024-01-10T02:47:36;24.23;;;13.93;;
47844;SDS011;33605;48.822;8.796;2024-01-10T02:50:02;28.80;;;13.83;;
47844;SDS011;33605;48.822;8.796;2024-01-10T02:52:29;24.00;;;12.67;;
47844;SDS011;33605;48.822;8.796;2024-01-10T02:54:54;23.80;;;13.97;;
47844;SDS011;33605;48.822;8.796;2024-01-10T02:57:20;28.13;;;14.83;;
47844;SDS011;33605;48.822;8.796;2024-01-10T02:59:45;25.23;;;13.83;;
47844;SDS011;33605;48.822;8.796;2024-01-10T03:02:11;23.80;;;12.70;;
47844;SDS011;33605;48.822;8.796;2024-01-10T03:04:37;22.37;;;12.70;;
47844;SDS011;33605;48.822;8.796;2024-01-10T03:07:02;23.63;;;12.80;;
47844;SDS011;33605;48.822;8.796;2024-01-10T03:09:28;22.53;;;13.40;;
47844;SDS011;33605;48.822;8.796;2024-01-10T03:11:53;17.93;;;11.50;;
47844;SDS011;33605;48.822;8.796;2024-01-10T03:14:19;23.23;;;11.80;;
47844;SDS011;33605;48.822;8.796;2024-01-10T03:16:45;26.20;;;13.03;;
47844;SDS011;33605;48.822;8.796;2024-01-10T03:19:11;22.27;;;11.77;;
47844;SDS011;33605;48.822;8.796;2024-01-10T03:21:36;24.20;;;13.20;;
47844;SDS011;33605;48.822;8.796;2024-01-10T03:24:02;25.40;;;13.53;;
47844;SDS011;33605;48.822;8.796;2024-01-10T03:26:28;22.77;;;13.57;;
47844;SDS011;33605;48.822;8.796;2024-01-10T03:28:55;26.20;;;13.53;;
47844;SDS011;33605;48.822;8.796;2024-01-10T03:31:22;23.70;;;13.17;;
47844;SDS011;33605;48.822;8.796;2024-01-10T03:33:48;23.97;;;13.63;;
47844;SDS011;33605;48.822;8.796;2024-01-10T03:36:15;25.00;;;14.87;;
47844;SDS011;33605;48.822;8.796;2024-01-10T03:38:42;28.60;;;14.70;;
47844;SDS011;33605;48.822;8.796;2024-01-10T03:41:15;23.73;;;12.93;;
47844;SDS011;33605;48.822;8.796;2024-01-10T03:43:41;29.37;;;13.60;;
47844;SDS011;33605;48.822;8.796;2024-01-10T03:46:08;25.33;;;14.50;;
47844;SDS011;33605;48.822;8.796;2024-01-10T03:48:34;25.50;;;12.90;;
47844;SDS011;33605;48.822;8.796;2024-01-10T03:50:59;30.03;;;15.73;;
47844;SDS011;33605;48.822;8.796;2024-01-10T03:53:25;24.37;;;13.50;;
47844;SDS011;33605;48.822;8.796;2024-01-10T03:55:51;26.87;;;14.03;;
47844;SDS011;33605;48.822;8.796;2024-01-10T03:58:17;26.30;;;13.83;;
47844;SDS011;33605;48.822;8.796;2024-01-10T04:00:42;28.93;;;14.43;;
47844;SDS011;33605;48.822;8.796;2024-01-10T04:03:08;21.90;;;12.87;;
47844;SDS011;33605;48.822;8.796;2024-01-10T04:05:34;30.73;;;13.10;;
47844;SDS011;33605;48.822;8.796;2024-01-10T04:07:59;24.80;;;12.77;;
47844;SDS011;33605;48.822;8.796;2024-01-10T04:10:25;27.20;;;13.90;;
47844;SDS011;33605;48.822;8.796;2024-01-10T04:12:50;25.30;;;13.10;;
47844;SDS011;33605;48.822;8.796;2024-01-10T04:15:16;23.77;;;13.97;;
47844;SDS011;33605;48.822;8.796;2024-01-10T04:17:43;20.93;;;12.60;;
47844;SDS011;33605;48.822;8.796;2024-01-10T04:20:08;27.63;;;15.60;;
47844;SDS011;33605;48.822;8.796;2024-01-10T04:22:34;28.00;;;13.33;;
47844;SDS011;33605;48.822;8.796;2024-01-10T04:25:00;26.00;;;13.77;;
47844;SDS011;33605;48.822;8.796;2024-01-10T04:27:27;24.70;;;14.40;;
47844;SDS011;33605;48.822;8.796;2024-01-10T04:29:53;23.73;;;12.83;;
47844;SDS011;33605;48.822;8.796;2024-01-10T04:32:19;22.97;;;13.13;;
47844;SDS011;33605;48.822;8.796;2024-01-10T04:34:45;22.40;;;13.10;;
47844;SDS011;33605;48.822;8.796;2024-01-10T04:37:10;25.30;;;13.53;;
47844;SDS011;33605;48.822;8.796;2024-01-10T04:39:36;21.93;;;12.33;;
47844;SDS011;33605;48.822;8.796;2024-01-10T04:42:05;25.13;;;12.93;;
47844;SDS011;33605;48.822;8.796;2024-01-10T04:44:31;25.03;;;13.20;;
47844;SDS011;33605;48.822;8.796;2024-01-10T04:46:57;24.30;;;13.23;;
47844;SDS011;33605;48.822;8.796;2024-01-10T04:49:22;21.70;;;12.17;;
47844;SDS011;33605;48.822;8.796;2024-01-10T04:51:48;22.53;;;13.47;;
47844;SDS011;33605;48.822;8.796;2024-01-10T04:54:15;26.53;;;12.57;;
47844;SDS011;33605;48.822;8.796;2024-01-10T04:56:40;27.20;;;14.00;;
47844;SDS011;33605;48.822;8.796;2024-01-10T04:59:06;20.77;;;11.20;;
47844;SDS011;33605;48.822;8.796;2024-01-10T05:01:32;20.70;;;11.70;;
47844;SDS011;33605;48.822;8.796;2024-01-10T05:03:58;21.60;;;12.47;;
47844;SDS011;33605;48.822;8.796;2024-01-10T05:06:23;26.27;;;12.80;;
47844;SDS011;33605;48.822;8.796;2024-01-10T05:08:49;24.77;;;13.73;;
47844;SDS011;33605;48.822;8.796;2024-01-10T05:11:15;26.43;;;13.50;;
47844;SDS011;33605;48.822;8.796;2024-01-10T05:13:44;22.07;;;12.43;;
47844;SDS011;33605;48.822;8.796;2024-01-10T05:16:10;23.70;;;13.60;;
47844;SDS011;33605;48.822;8.796;2024-01-10T05:18:36;18.57;;;12.10;;
47844;SDS011;33605;48.822;8.796;2024-01-10T05:21:01;24.37;;;13.33;;
47844;SDS011;33605;48.822;8.796;2024-01-10T05:23:28;27.13;;;13.30;;
47844;SDS011;33605;48.822;8.796;2024-01-10T05:25:54;24.43;;;12.80;;
47844;SDS011;33605;48.822;8.796;2024-01-10T05:28:20;25.90;;;13.33;;
47844;SDS011;33605;48.822;8.796;2024-01-10T05:30:46;25.77;;;13.37;;
47844;SDS011;33605;48.822;8.796;2024-01-10T05:33:11;23.53;;;13.43;;
47844;SDS011;33605;48.822;8.796;2024-01-10T05:35:40;22.43;;;12.87;;
47844;SDS011;33605;48.822;8.796;2024-01-10T05:38:06;20.30;;;11.63;;
47844;SDS011;33605;48.822;8.796;2024-01-10T05:40:32;26.37;;;13.83;;
47844;SDS011;33605;48.822;8.796;2024-01-10T05:42:57;23.07;;;12.80;;
47844;SDS011;33605;48.822;8.796;2024-01-10T05:45:26;23.80;;;13.37;;
47844;SDS011;33605;48.822;8.796;2024-01-10T05:47:53;24.20;;;12.60;;
47844;SDS011;33605;48.822;8.796;2024-01-10T05:50:19;22.57;;;13.53;;
47844;SDS011;33605;48.822;8.796;2024-01-10T05:52:46;24.23;;;12.40;;
47844;SDS011;33605;48.822;8.796;2024-01-10T05:55:12;22.90;;;12.47;;
47844;SDS011;33605;48.822;8.796;2024-01-10T05:57:37;25.10;;;12.90;;
47844;SDS011;33605;48.822;8.796;2024-01-10T06:00:04;18.83;;;11.87;;
47844;SDS011;33605;48.822;8.796;2024-01-10T06:02:37;23.93;;;12.60;;
47844;SDS011;33605;48.822;8.796;2024-01-10T06:05:06;24.70;;;12.60;;
47844;SDS011;33605;48.822;8.796;2024-01-10T06:07:36;23.53;;;13.03;;
47844;SDS011;33605;48.822;8.796;2024-01-10T06:10:02;23.47;;;12.37;;
47844;SDS011;33605;48.822;8.796;2024-01-10T06:12:28;23.63;;;12.70;;
47844;SDS011;33605;48.822;8.796;2024-01-10T06:14:54;24.73;;;12.77;;
47844;SDS011;33605;48.822;8.796;2024-01-10T06:17:20;24.47;;;12.90;;
47844;SDS011;33605;48.822;8.796;2024-01-10T06:19:46;22.47;;;13.10;;
47844;SDS011;33605;48.822;8.796;2024-01-10T06:22:11;24.90;;;14.17;;
47844;SDS011;33605;48.822;8.796;2024-01-10T06:24:38;30.37;;;13.07;;
47844;SDS011;33605;48.822;8.796;2024-01-10T06:27:03;21.60;;;12.23;;
47844;SDS011;33605;48.822;8.796;2024-01-10T06:29:31;21.90;;;12.40;;
47844;SDS011;33605;48.822;8.796;2024-01-10T06:31:56;20.60;;;12.03;;
47844;SDS011;33605;48.822;8.796;2024-01-10T06:34:22;21.17;;;12.60;;
47844;SDS011;33605;48.822;8.796;2024-01-10T06:36:48;18.97;;;11.87;;
47844;SDS011;33605;48.822;8.796;2024-01-10T06:39:14;18.87;;;11.73;;
47844;SDS011;33605;48.822;8.796;2024-01-10T06:41:40;26.73;;;13.23;;
47844;SDS011;33605;48.822;8.796;2024-01-10T06:44:07;19.90;;;11.97;;
47844;SDS011;33605;48.822;8.796;2024-01-10T06:46:33;23.37;;;11.53;;
47844;SDS011;33605;48.822;8.796;2024-01-10T06:48:59;21.50;;;11.17;;
47844;SDS011;33605;48.822;8.796;2024-01-10T06:51:25;16.77;;;11.00;;
47844;SDS011;33605;48.822;8.796;2024-01-10T06:53:51;19.40;;;12.00;;
47844;SDS011;33605;48.822;8.796;2024-01-10T06:56:17;22.30;;;12.87;;
47844;SDS011;33605;48.822;8.796;2024-01-10T06:58:43;20.73;;;11.93;;
47844;SDS011;33605;48.822;8.796;2024-01-10T07:01:12;20.87;;;11.10;;
47844;SDS011;33605;48.822;8.796;2024-01-10T07:03:40;23.80;;;12.50;;
47844;SDS011;33605;48.822;8.796;2024-01-10T07:06:06;22.57;;;11.57;;
47844;SDS011;33605;48.822;8.796;2024-01-10T07:08:31;21.13;;;12.30;;
47844;SDS011;33605;48.822;8.796;2024-01-10T07:10:57;22.70;;;12.53;;
47844;SDS011;33605;48.822;8.796;2024-01-10T07:13:23;23.13;;;13.27;;
47844;SDS011;33605;48.822;8.796;2024-01-10T07:15:49;20.27;;;12.00;;
47844;SDS011;33605;48.822;8.796;2024-01-10T07:18:17;23.10;;;12.87;;
47844;SDS011;33605;48.822;8.796;2024-01-10T07:20:43;27.13;;;12.97;;
47844;SDS011;33605;48.822;8.796;2024-01-10T07:23:08;20.73;;;11.40;;
47844;SDS011;33605;48.822;8.796;2024-01-10T07:25:35;24.13;;;13.07;;
47844;SDS011;33605;48.822;8.796;2024-01-10T07:28:02;24.00;;;13.00;;
47844;SDS011;33605;48.822;8.796;2024-01-10T07:30:28;21.30;;;13.10;;
47844;SDS011;33605;48.822;8.796;2024-01-10T07:32:58;22.80;;;13.93;;
47844;SDS011;33605;48.822;8.796;2024-01-10T07:35:25;23.90;;;13.63;;
47844;SDS011;33605;48.822;8.796;2024-01-10T07:37:51;23.95;;;13.18;;
47844;SDS011;33605;48.822;8.796;2024-01-10T07:40:17;35.07;;;15.27;;
47844;SDS011;33605;48.822;8.796;2024-01-10T07:42:43;26.47;;;14.10;;
47844;SDS011;33605;48.822;8.796;2024-01-10T07:45:08;29.13;;;13.33;;
47844;SDS011;33605;48.822;8.796;2024-01-10T07:47:34;25.33;;;13.43;;
47844;SDS011;33605;48.822;8.796;2024-01-10T07:50:07;25.00;;;13.03;;
47844;SDS011;33605;48.822;8.796;2024-01-10T07:52:39;23.97;;;13.50;;
47844;SDS011;33605;48.822;8.796;2024-01-10T07:55:05;23.50;;;13.47;;
47844;SDS011;33605;48.822;8.796;2024-01-10T07:57:31;26.40;;;13.10;;
47844;SDS011;33605;48.822;8.796;2024-01-10T07:59:59;26.43;;;13.47;;
47844;SDS011;33605;48.822;8.796;2024-01-10T08:02:24;21.83;;;12.90;;
47844;SDS011;33605;48.822;8.796;2024-01-10T08:04:50;24.37;;;13.70;;
47844;SDS011;33605;48.822;8.796;2024-01-10T08:07:16;24.07;;;12.00;;
47844;SDS011;33605;48.822;8.796;2024-01-10T08:09:42;22.70;;;12.93;;
47844;SDS011;33605;48.822;8.796;2024-01-10T08:12:07;26.53;;;14.80;;
47844;SDS011;33605;48.822;8.796;2024-01-10T08:14:33;25.40;;;13.67;;
47844;SDS011;33605;48.822;8.796;2024-01-10T08:16:59;28.63;;;12.93;;
47844;SDS011;33605;48.822;8.796;2024-01-10T08:19:25;22.43;;;13.93;;
47844;SDS011;33605;48.822;8.796;2024-01-10T08:21:54;26.17;;;14.07;;
47844;SDS011;33605;48.822;8.796;2024-01-10T08:24:20;25.83;;;14.03;;
47844;SDS011;33605;48.822;8.796;2024-01-10T08:26:47;26.50;;;13.83;;
47844;SDS011;33605;48.822;8.796;2024-01-10T08:29:16;31.70;;;15.80;;
47844;SDS011;33605;48.822;8.796;2024-01-10T08:31:43;25.27;;;13.57;;
47844;SDS011;33605;48.822;8.796;2024-01-10T08:34:09;28.13;;;14.47;;
47844;SDS011;33605;48.822;8.796;2024-01-10T08:36:35;24.97;;;14.30;;
47844;SDS011;33605;48.822;8.796;2024-01-10T08:39:00;26.73;;;15.10;;
47844;SDS011;33605;48.822;8.796;2024-01-10T08:41:28;33.13;;;15.60;;
47844;SDS011;33605;48.822;8.796;2024-01-10T08:43:54;27.33;;;16.20;;
47844;SDS011;33605;48.822;8.796;2024-01-10T08:46:20;26.57;;;14.87;;
47844;SDS011;33605;48.822;8.796;2024-01-10T08:48:46;27.23;;;16.27;;
47844;SDS011;33605;48.822;8.796;2024-01-10T08:51:12;27.63;;;15.13;;
47844;SDS011;33605;48.822;8.796;2024-01-10T08:53:41;26.77;;;15.57;;
47844;SDS011;33605;48.822;8.796;2024-01-10T08:56:10;34.03;;;15.60;;
47844;SDS011;33605;48.822;8.796;2024-01-10T08:58:36;27.40;;;15.57;;
47844;SDS011;33605;48.822;8.796;2024-01-10T09:01:02;25.17;;;15.60;;
47844;SDS011;33605;48.822;8.796;2024-01-10T09:03:29;29.70;;;16.83;;
47844;SDS011;33605;48.822;8.796;2024-01-10T09:05:55;29.23;;;15.97;;
47844;SDS011;33605;48.822;8.796;2024-01-10T09:08:20;30.27;;;16.50;;
47844;SDS011;33605;48.822;8.796;2024-01-10T09:10:47;29.47;;;16.70;;
47844;SDS011;33605;48.822;8.796;2024-01-10T09:13:17;27.83;;;15.57;;
47844;SDS011;33605;48.822;8.796;2024-01-10T09:15:42;27.97;;;15.97;;
47844;SDS011;33605;48.822;8.796;2024-01-10T09:18:08;27.77;;;16.17;;
47844;SDS011;33605;48.822;8.796;2024-01-10T09:20:34;28.33;;;16.93;;
47844;SDS011;33605;48.822;8.796;2024-01-10T09:23:01;32.83;;;17.17;;
47844;SDS011;33605;48.822;8.796;2024-01-10T09:25:27;28.37;;;17.20;;
47844;SDS011;33605;48.822;8.796;2024-01-10T09:27:53;28.20;;;15.53;;
47844;SDS011;33605;48.822;8.796;2024-01-10T09:30:19;30.77;;;18.20;;
47844;SDS011;33605;48.822;8.796;2024-01-10T09:32:45;26.87;;;16.27;;
47844;SDS011;33605;48.822;8.796;2024-01-10T09:35:12;27.93;;;16.03;;
47844;SDS011;33605;48.822;8.796;2024-01-10T09:37:38;28.63;;;16.30;;
47844;SDS011;33605;48.822;8.796;2024-01-10T09:40:05;32.07;;;17.33;;
47844;SDS011;33605;48.822;8.796;2024-01-10T09:42:34;28.70;;;17.33;;
47844;SDS011;33605;48.822;8.796;2024-01-10T09:45:03;33.27;;;17.07;;
47844;SDS011;33605;48.822;8.796;2024-01-10T09:47:30;30.23;;;16.80;;
47844;SDS011;33605;48.822;8.796;2024-01-10T09:49:57;31.87;;;17.00;;
47844;SDS011;33605;48.822;8.796;2024-01-10T09:52:27;29.30;;;16.80;;
47844;SDS011;33605;48.822;8.796;2024-01-10T09:54:54;25.13;;;15.50;;
47844;SDS011;33605;48.822;8.796;2024-01-10T09:57:21;29.97;;;17.70;;
47844;SDS011;33605;48.822;8.796;2024-01-10T09:59:49;28.27;;;16.80;;
47844;SDS011;33605;48.822;8.796;2024-01-10T10:02:17;37.17;;;18.40;;
47844;SDS011;33605;48.822;8.796;2024-01-10T10:04:45;28.57;;;17.67;;
47844;SDS011;33605;48.822;8.796;2024-01-10T10:07:14;28.87;;;18.53;;
47844;SDS011;33605;48.822;8.796;2024-01-10T10:09:40;25.47;;;17.40;;
47844;SDS011;33605;48.822;8.796;2024-01-10T10:12:06;31.20;;;18.00;;
47844;SDS011;33605;48.822;8.796;2024-01-10T10:14:33;32.63;;;17.90;;
47844;SDS011;33605;48.822;8.796;2024-01-10T10:17:18;28.37;;;17.70;;
47844;SDS011;33605;48.822;8.796;2024-01-10T10:19:44;27.60;;;18.00;;
47844;SDS011;33605;48.822;8.796;2024-01-10T10:22:10;29.07;;;18.77;;
47844;SDS011;33605;48.822;8.796;2024-01-10T10:24:36;37.20;;;20.67;;
47844;SDS011;33605;48.822;8.796;2024-01-10T10:27:11;31.57;;;16.80;;
47844;SDS011;33605;48.822;8.796;2024-01-10T10:29:38;32.87;;;18.83;;
47844;SDS011;33605;48.822;8.796;2024-01-10T10:32:04;32.43;;;18.27;;
47844;SDS011;33605;48.822;8.796;2024-01-10T10:34:31;34.40;;;19.07;;
47844;SDS011;33605;48.822;8.796;2024-01-10T10:36:57;33.73;;;18.50;;
47844;SDS011;33605;48.822;8.796;2024-01-10T10:39:24;29.13;;;18.83;;
47844;SDS011;33605;48.822;8.796;2024-01-10T10:41:50;26.90;;;18.20;;
47844;SDS011;33605;48.822;8.796;2024-01-10T10:44:19;31.00;;;19.33;;
47844;SDS011;33605;48.822;8.796;2024-01-10T10:46:49;36.93;;;18.50;;
47844;SDS011;33605;48.822;8.796;2024-01-10T10:49:19;37.23;;;18.10;;
47844;SDS011;33605;48.822;8.796;2024-01-10T10:51:50;35.03;;;19.20;;
47844;SDS011;33605;48.822;8.796;2024-01-10T10:54:16;30.50;;;19.20;;
47844;SDS011;33605;48.822;8.796;2024-01-10T10:56:43;26.30;;;17.40;;
47844;SDS011;33605;48.822;8.796;2024-01-10T10:59:10;28.93;;;17.63;;
47844;SDS011;33605;48.822;8.796;2024-01-10T11:01:38;24.43;;;17.20;;
47844;SDS011;33605;48.822;8.796;2024-01-10T11:04:05;23.40;;;17.00;;
47844;SDS011;33605;48.822;8.796;2024-01-10T11:06:31;27.00;;;17.33;;
47844;SDS011;33605;48.822;8.796;2024-01-10T11:09:04;26.47;;;18.43;;
47844;SDS011;33605;48.822;8.796;2024-01-10T11:22:26;24.30;;;18.20;;
47844;SDS011;33605;48.822;8.796;2024-01-10T11:24:54;23.23;;;17.73;;
47844;SDS011;33605;48.822;8.796;2024-01-10T11:27:20;24.83;;;18.43;;
47844;SDS011;33605;48.822;8.796;2024-01-10T11:29:47;21.83;;;17.97;;
47844;SDS011;33605;48.822;8.796;2024-01-10T11:35:03;24.90;;;18.97;;
47844;SDS011;33605;48.822;8.796;2024-01-10T11:37:39;21.77;;;16.60;;
47844;SDS011;33605;48.822;8.796;2024-01-10T11:40:09;28.07;;;17.17;;
47844;SDS011;33605;48.822;8.796;2024-01-10T11:42:41;22.73;;;17.30;;
47844;SDS011;33605;48.822;8.796;2024-01-10T11:45:08;22.20;;;17.27;;
47844;SDS011;33605;48.822;8.796;2024-01-10T11:47:37;29.70;;;18.57;;
47844;SDS011;33605;48.822;8.796;2024-01-10T11:50:04;26.70;;;18.73;;
47844;SDS011;33605;48.822;8.796;2024-01-10T11:52:33;24.20;;;17.67;;
47844;SDS011;33605;48.822;8.796;2024-01-10T11:54:59;22.83;;;17.27;;
47844;SDS011;33605;48.822;8.796;2024-01-10T11:57:26;25.20;;;17.70;;
47844;SDS011;33605;48.822;8.796;2024-01-10T11:59:53;22.33;;;16.53;;
47844;SDS011;33605;48.822;8.796;2024-01-10T12:02:20;22.27;;;17.63;;
47844;SDS011;33605;48.822;8.796;2024-01-10T12:04:48;25.40;;;18.83;;
47844;SDS011;33605;48.822;8.796;2024-01-10T12:07:15;22.97;;;17.30;;
47844;SDS011;33605;48.822;8.796;2024-01-10T12:09:41;22.23;;;17.50;;
47844;SDS011;33605;48.822;8.796;2024-01-10T12:12:08;22.20;;;17.03;;
47844;SDS011;33605;48.822;8.796;2024-01-10T12:14:36;28.37;;;17.63;;
47844;SDS011;33605;48.822;8.796;2024-01-10T12:17:02;28.17;;;20.13;;
47844;SDS011;33605;48.822;8.796;2024-01-10T12:19:29;22.73;;;18.07;;
47844;SDS011;33605;48.822;8.796;2024-01-10T12:21:55;23.20;;;18.03;;
47844;SDS011;33605;48.822;8.796;2024-01-10T12:24:21;24.47;;;18.47;;
47844;SDS011;33605;48.822;8.796;2024-01-10T12:26:48;23.30;;;18.33;;
47844;SDS011;33605;48.822;8.796;2024-01-10T12:29:18;22.13;;;17.50;;
47844;SDS011;33605;48.822;8.796;2024-01-10T12:31:47;22.80;;;17.60;;
47844;SDS011;33605;48.822;8.796;2024-01-10T12:34:14;22.70;;;17.53;;
47844;SDS011;33605;48.822;8.796;2024-01-10T12:36:41;22.83;;;17.23;;
47844;SDS011;33605;48.822;8.796;2024-01-10T12:39:11;24.50;;;18.77;;
47844;SDS011;33605;48.822;8.796;2024-01-10T12:41:37;22.37;;;18.10;;
47844;SDS011;33605;48.822;8.796;2024-01-10T12:44:07;24.50;;;16.73;;
47844;SDS011;33605;48.822;8.796;2024-01-10T12:46:33;24.43;;;18.87;;
47844;SDS011;33605;48.822;8.796;2024-01-10T12:49:01;23.17;;;18.13;;
47844;SDS011;33605;48.822;8.796;2024-01-10T12:51:28;22.50;;;16.93;;
47844;SDS011;33605;48.822;8.796;2024-01-10T12:53:54;28.40;;;18.67;;
47844;SDS011;33605;48.822;8.796;2024-01-10T12:56:22;21.73;;;16.90;;
47844;SDS011;33605;48.822;8.796;2024-01-10T12:58:49;21.70;;;18.13;;
47844;SDS011;33605;48.822;8.796;2024-01-10T13:01:15;24.63;;;17.90;;
47844;SDS011;33605;48.822;8.796;2024-01-10T13:03:42;19.90;;;17.50;;
47844;SDS011;33605;48.822;8.796;2024-01-10T13:06:09;23.50;;;18.70;;
47844;SDS011;33605;48.822;8.796;2024-01-10T13:08:35;22.70;;;17.63;;
47844;SDS011;33605;48.822;8.796;2024-01-10T13:11:01;19.90;;;16.93;;
47844;SDS011;33605;48.822;8.796;2024-01-10T13:13:33;27.97;;;16.87;;
47844;SDS011;33605;48.822;8.796;2024-01-10T13:15:59;20.10;;;15.67;;
47844;SDS011;33605;48.822;8.796;2024-01-10T13:18:25;22.63;;;18.77;;
47844;SDS011;33605;48.822;8.796;2024-01-10T13:20:54;22.53;;;17.70;;
47844;SDS011;33605;48.822;8.796;2024-01-10T13:23:20;25.20;;;17.93;;
47844;SDS011;33605;48.822;8.796;2024-01-10T13:25:49;22.33;;;18.10;;
47844;SDS011;33605;48.822;8.796;2024-01-10T13:28:16;21.27;;;18.07;;
47844;SDS011;33605;48.822;8.796;2024-01-10T13:30:42;24.43;;;17.63;;
47844;SDS011;33605;48.822;8.796;2024-01-10T13:33:09;18.83;;;15.10;;
47844;SDS011;33605;48.822;8.796;2024-01-10T13:35:35;23.80;;;16.90;;
47844;SDS011;33605;48.822;8.796;2024-01-10T13:38:02;23.67;;;17.70;;
47844;SDS011;33605;48.822;8.796;2024-01-10T13:40:28;20.30;;;17.40;;
47844;SDS011;33605;48.822;8.796;2024-01-10T13:42:57;19.60;;;17.43;;
47844;SDS011;33605;48.822;8.796;2024-01-10T13:45:25;19.80;;;17.47;;
47844;SDS011;33605;48.822;8.796;2024-01-10T13:47:51;21.67;;;17.97;;
47844;SDS011;33605;48.822;8.796;2024-01-10T13:50:17;20.73;;;17.70;;
47844;SDS011;33605;48.822;8.796;2024-01-10T13:52:43;22.23;;;17.53;;
47844;SDS011;33605;48.822;8.796;2024-01-10T13:55:10;24.37;;;20.10;;
47844;SDS011;33605;48.822;8.796;2024-01-10T13:57:36;23.60;;;19.90;;
47844;SDS011;33605;48.822;8.796;2024-01-10T14:00:03;21.50;;;18.13;;
47844;SDS011;33605;48.822;8.796;2024-01-10T14:02:32;18.70;;;16.37;;
47844;SDS011;33605;48.822;8.796;2024-01-10T14:04:58;19.70;;;17.10;;
47844;SDS011;33605;48.822;8.796;2024-01-10T14:07:24;19.23;;;14.90;;
47844;SDS011;33605;48.822;8.796;2024-01-10T14:09:50;19.30;;;17.13;;
47844;SDS011;33605;48.822;8.796;2024-01-10T14:12:19;26.23;;;17.57;;
47844;SDS011;33605;48.822;8.796;2024-01-10T14:14:48;22.03;;;17.07;;
47844;SDS011;33605;48.822;8.796;2024-01-10T14:17:14;20.37;;;17.73;;
47844;SDS011;33605;48.822;8.796;2024-01-10T14:19:40;22.40;;;18.17;;
47844;SDS011;33605;48.822;8.796;2024-01-10T14:22:06;18.23;;;16.03;;
47844;SDS011;33605;48.822;8.796;2024-01-10T14:24:33;24.10;;;17.47;;
47844;SDS011;33605;48.822;8.796;2024-01-10T14:26:59;19.03;;;16.67;;
47844;SDS011;33605;48.822;8.796;2024-01-10T14:29:26;19.07;;;16.93;;
47844;SDS011;33605;48.822;8.796;2024-01-10T14:31:53;22.53;;;20.13;;